Time;durP1;ratioP1;P1;durP2;ratioP2;P2;SDS_P1;SDS_P2;PMS_P1;PMS_P2;Temp;Humidity;BMP_temperature;BMP_pressure;BME280_temperature;BME280_humidity;BME280_pressure;Samples;Min_cycle;Max_cycle;Signal;HPM_P1;HPM_P2
2022/09/04 00:02:07;;;;;;;1.20;0.90;;;14.40;99.90;;;;;;4945001;28;20055;-48
2022/09/04 00:04:57;;;;;;;1.88;0.70;;;14.40;99.90;;;;;;4940918;28;20416;-51
2022/09/04 00:07:51;;;;;;;0.70;0.70;;;14.40;99.90;;;;;;4946649;28;20054;-49
2022/09/04 00:10:29;;;;;;;0.50;0.50;;;14.40;99.90;;;;;;4949743;28;20287;-47
2022/09/04 00:13:04;;;;;;;1.55;1.00;;;14.40;99.90;;;;;;4952899;28;20027;-49
2022/09/04 00:15:43;;;;;;;0.80;0.80;;;14.30;99.90;;;;;;4985729;23;20050;-56
2022/09/04 00:18:19;;;;;;;0.93;0.75;;;14.30;99.90;;;;;;4977174;28;20037;-54
2022/09/04 00:20:44;;;;;;;3.05;0.93;;;14.30;99.90;;;;;;4984765;28;20455;-56
2022/09/04 00:23:40;;;;;;;2.38;0.75;;;14.30;99.90;;;;;;4981157;28;20086;-57
2022/09/04 00:26:30;;;;;;;2.28;0.98;;;14.30;99.90;;;;;;4983140;28;20038;-57
2022/09/04 00:29:03;;;;;;;0.73;0.73;;;14.20;99.90;;;;;;4983092;28;20018;-57
2022/09/04 00:31:40;;;;;;;1.45;0.73;;;14.20;99.90;;;;;;4984195;28;20500;-57
2022/09/04 00:34:24;;;;;;;1.73;0.80;;;14.20;99.90;;;;;;4984098;28;20018;-56
2022/09/04 00:36:55;;;;;;;1.05;0.80;;;14.20;99.90;;;;;;4984233;28;20057;-57
2022/09/04 00:39:43;;;;;;;1.77;1.13;;;14.20;99.90;;;;;;4976642;28;20078;-58
2022/09/04 00:42:21;;;;;;;0.55;0.55;;;14.20;99.90;;;;;;4986824;28;20416;-57
2022/09/04 00:45:14;;;;;;;1.92;0.63;;;14.10;99.90;;;;;;4976866;28;20519;-58
2022/09/04 00:48:26;;;;;;;1.75;0.98;;;14.20;99.90;;;;;;4977190;28;20047;-58
2022/09/04 00:51:20;;;;;;;2.03;0.70;;;14.10;99.90;;;;;;4959677;28;20043;-58
2022/09/04 00:54:24;;;;;;;2.60;0.52;;;14.10;99.90;;;;;;4984477;28;20104;-58
2022/09/04 00:57:14;;;;;;;1.27;0.90;;;14.10;99.90;;;;;;4977724;28;20018;-57
2022/09/04 01:00:16;;;;;;;3.25;1.33;;;14.10;99.90;;;;;;4981542;28;20030;-58
2022/09/04 01:02:56;;;;;;;0.70;0.55;;;14.10;99.90;;;;;;4981359;28;20446;-56
2022/09/04 01:05:27;;;;;;;2.25;0.80;;;14.00;99.90;;;;;;4977209;28;20015;-57
2022/09/04 01:08:14;;;;;;;3.17;0.93;;;14.00;99.90;;;;;;4986548;28;20431;-57
2022/09/04 01:10:44;;;;;;;;;;;14.00;99.90;;;;;;4980760;28;20566;-55
2022/09/04 01:13:41;;;;;;;3.22;0.90;;;14.00;99.90;;;;;;4986934;28;19909;-58
2022/09/04 01:16:38;;;;;;;2.35;0.60;;;14.00;99.90;;;;;;4981272;28;20031;-55
2022/09/04 01:19:26;;;;;;;;;;;14.00;99.90;;;;;;4982821;28;20122;-58
2022/09/04 01:22:10;;;;;;;1.23;0.70;;;14.00;99.90;;;;;;4974535;28;19953;-53
2022/09/04 01:24:58;;;;;;;0.90;0.70;;;13.90;99.90;;;;;;4979509;28;20023;-55
2022/09/04 01:27:34;;;;;;;1.05;0.60;;;13.90;99.90;;;;;;4977839;28;20039;-58
2022/09/04 01:30:05;;;;;;;2.33;0.82;;;13.90;99.90;;;;;;4987388;28;20050;-59
2022/09/04 01:33:07;;;;;;;0.75;0.70;;;13.80;99.90;;;;;;4979688;28;20097;-53
2022/09/04 01:35:48;;;;;;;1.95;1.00;;;13.80;99.90;;;;;;4974516;28;20023;-56
2022/09/04 01:38:38;;;;;;;1.48;1.10;;;13.80;99.90;;;;;;4968195;28;20022;-55
2022/09/04 01:41:18;;;;;;;0.60;0.60;;;13.80;99.90;;;;;;4972417;28;20031;-55
2022/09/04 01:43:44;;;;;;;0.75;0.70;;;13.80;99.90;;;;;;4980581;28;20014;-53
2022/09/04 01:46:09;;;;;;;3.03;0.90;;;13.70;99.90;;;;;;4980141;28;20073;-57
2022/09/04 01:49:10;;;;;;;0.50;0.47;;;13.70;99.90;;;;;;4979152;28;20511;-54
2022/09/04 01:51:38;;;;;;;1.45;0.70;;;13.70;99.90;;;;;;4967052;28;20037;-55
2022/09/04 01:54:22;;;;;;;1.85;0.90;;;13.70;99.90;;;;;;4980483;28;20122;-53
2022/09/04 01:56:57;;;;;;;1.42;1.15;;;13.70;99.90;;;;;;4978653;28;20026;-56
2022/09/04 01:59:50;;;;;;;1.02;0.80;;;13.70;99.90;;;;;;4982803;28;20019;-56
2022/09/04 02:02:34;;;;;;;1.38;0.93;;;13.60;99.90;;;;;;4971982;28;20054;-54
2022/09/04 02:05:39;;;;;;;0.82;0.65;;;13.60;99.90;;;;;;4987096;28;20038;-56
2022/09/04 02:08:24;;;;;;;2.55;0.88;;;13.50;99.90;;;;;;4980494;28;20042;-56
2022/09/04 02:11:06;;;;;;;1.25;0.90;;;13.50;99.90;;;;;;4980813;28;20526;-54
2022/09/04 02:13:55;;;;;;;0.57;0.57;;;13.50;99.90;;;;;;4978500;28;20026;-57
2022/09/04 02:16:32;;;;;;;2.17;0.60;;;13.50;99.90;;;;;;4981561;28;20398;-56
2022/09/04 02:19:11;;;;;;;0.85;0.70;;;13.50;99.90;;;;;;4981164;28;20026;-56
2022/09/04 02:22:05;;;;;;;1.05;0.98;;;13.50;99.90;;;;;;4974169;28;20388;-55
2022/09/04 02:24:52;;;;;;;0.93;0.73;;;13.40;99.90;;;;;;4975121;28;20029;-57
2022/09/04 02:27:37;;;;;;;0.95;0.70;;;13.40;99.90;;;;;;4968641;28;20108;-56
2022/09/04 02:30:09;;;;;;;1.98;0.95;;;13.40;99.90;;;;;;4980841;28;20026;-56
2022/09/04 02:33:12;;;;;;;0.88;0.77;;;13.40;99.90;;;;;;4982056;28;20029;-56
2022/09/04 02:35:53;;;;;;;1.20;0.80;;;13.40;99.90;;;;;;4982473;28;20030;-57
2022/09/04 02:38:34;;;;;;;1.42;1.05;;;13.30;99.90;;;;;;4977028;28;20038;-56
2022/09/04 02:41:06;;;;;;;0.93;0.77;;;13.30;99.90;;;;;;4984937;28;20081;-54
2022/09/04 02:43:34;;;;;;;1.15;0.90;;;13.20;99.90;;;;;;4978418;28;20578;-56
2022/09/04 02:46:10;;;;;;;0.68;0.60;;;13.20;99.90;;;;;;4985473;28;20037;-57
2022/09/04 02:48:50;;;;;;;2.60;0.70;;;13.20;99.90;;;;;;4976344;28;20046;-57
2022/09/04 02:51:44;;;;;;;1.92;0.63;;;13.10;99.90;;;;;;4967349;28;20019;-58
2022/09/04 02:54:15;;;;;;;1.00;0.90;;;13.00;99.90;;;;;;4980748;28;20033;-57
2022/09/04 02:56:51;;;;;;;2.20;1.00;;;13.00;99.90;;;;;;4981984;28;20011;-54
2022/09/04 02:59:35;;;;;;;3.17;0.80;;;12.90;99.90;;;;;;4970011;28;20478;-58
2022/09/04 03:02:10;;;;;;;0.82;0.70;;;12.80;99.90;;;;;;4981199;28;20478;-56
2022/09/04 03:04:59;;;;;;;1.00;0.90;;;12.70;99.90;;;;;;4981926;28;20105;-57
2022/09/04 03:07:42;;;;;;;1.52;1.20;;;12.70;99.90;;;;;;4976761;28;20030;-57
2022/09/04 03:10:23;;;;;;;1.85;0.93;;;12.60;99.90;;;;;;4984980;28;20114;-59
2022/09/04 03:13:02;;;;;;;1.20;1.10;;;12.60;99.90;;;;;;4975134;28;20086;-57
2022/09/04 03:15:49;;;;;;;0.98;0.57;;;12.60;99.90;;;;;;4978323;28;20084;-54
2022/09/04 03:18:50;;;;;;;1.88;0.70;;;12.50;99.90;;;;;;4968243;28;20038;-54
2022/09/04 03:21:23;;;;;;;2.08;1.27;;;12.50;99.90;;;;;;4971633;28;20026;-54
2022/09/04 03:23:59;;;;;;;0.90;0.80;;;12.40;99.90;;;;;;4981457;28;20045;-57
2022/09/04 03:26:38;;;;;;;2.33;0.80;;;12.40;99.90;;;;;;4973528;28;20022;-58
2022/09/04 03:29:09;;;;;;;1.65;0.90;;;12.40;99.90;;;;;;4979169;28;20046;-56
2022/09/04 03:31:57;;;;;;;0.90;0.82;;;12.30;99.90;;;;;;4983256;28;20042;-57
2022/09/04 03:34:37;;;;;;;3.67;0.80;;;12.30;99.90;;;;;;4978250;28;20018;-58
2022/09/04 03:37:08;;;;;;;1.52;0.75;;;12.30;99.90;;;;;;4986133;28;20102;-57
2022/09/04 03:39:59;;;;;;;0.88;0.88;;;12.20;99.90;;;;;;4978120;28;20015;-58
2022/09/04 03:43:07;;;;;;;0.60;0.60;;;12.20;99.90;;;;;;4972001;28;20041;-58
2022/09/04 03:45:41;;;;;;;1.73;0.75;;;12.20;99.90;;;;;;4974882;28;20410;-56
2022/09/04 03:48:18;;;;;;;0.80;0.73;;;12.10;99.90;;;;;;4980160;28;20578;-55
2022/09/04 03:50:58;;;;;;;0.80;0.80;;;12.10;99.90;;;;;;4977873;28;20019;-53
2022/09/04 03:53:30;;;;;;;1.65;0.70;;;12.10;99.90;;;;;;4976626;28;20015;-55
2022/09/04 03:56:33;;;;;;;1.95;1.00;;;12.10;99.90;;;;;;4982586;28;20591;-57
2022/09/04 03:59:07;;;;;;;1.17;0.70;;;12.00;99.90;;;;;;4983793;28;20035;-56
2022/09/04 04:01:52;;;;;;;1.48;0.70;;;12.00;99.90;;;;;;4984690;28;20022;-56
2022/09/04 04:04:55;;;;;;;0.70;0.60;;;11.90;99.90;;;;;;4975343;28;20034;-53
2022/09/04 04:07:34;;;;;;;1.58;0.80;;;11.90;99.90;;;;;;4979194;28;20680;-53
2022/09/04 04:10:32;;;;;;;1.65;0.80;;;11.90;99.90;;;;;;4986438;28;20080;-56
2022/09/04 04:13:18;;;;;;;1.13;0.88;;;11.90;99.90;;;;;;4980046;28;20034;-53
2022/09/04 04:15:44;;;;;;;1.03;0.77;;;11.90;99.90;;;;;;4984360;28;20026;-56
2022/09/04 04:18:30;;;;;;;1.50;0.95;;;11.90;99.90;;;;;;4984164;28;20273;-56
2022/09/04 04:21:04;;;;;;;1.17;0.80;;;11.90;99.90;;;;;;4984723;28;20076;-54
2022/09/04 04:23:56;;;;;;;1.95;0.93;;;11.90;99.90;;;;;;4984161;28;20026;-53
2022/09/04 04:26:48;;;;;;;1.17;0.95;;;11.80;99.90;;;;;;4977206;28;20022;-58
2022/09/04 04:29:40;;;;;;;1.38;1.00;;;11.90;99.90;;;;;;4980964;28;20026;-57
2022/09/04 04:32:36;;;;;;;1.02;0.93;;;11.90;99.90;;;;;;4987867;28;20026;-57
2022/09/04 04:35:10;;;;;;;2.67;0.80;;;11.80;99.90;;;;;;4981127;28;20046;-57
2022/09/04 04:37:42;;;;;;;1.15;0.70;;;11.90;99.90;;;;;;4986048;28;20023;-56
2022/09/04 04:40:10;;;;;;;1.73;1.00;;;11.90;99.90;;;;;;4983391;28;20495;-57
2022/09/04 04:42:48;;;;;;;2.20;1.08;;;11.90;99.90;;;;;;4983753;28;20038;-55
2022/09/04 04:45:51;;;;;;;1.13;1.02;;;11.90;99.90;;;;;;4979773;28;20026;-54
2022/09/04 04:48:40;;;;;;;0.75;0.75;;;11.90;99.90;;;;;;4976778;28;20026;-53
2022/09/04 04:51:20;;;;;;;1.48;1.02;;;11.90;99.90;;;;;;4981614;28;20550;-53
2022/09/04 04:54:12;;;;;;;1.55;0.90;;;11.90;99.90;;;;;;4984230;28;20070;-57
2022/09/04 04:56:44;;;;;;;2.42;1.13;;;11.90;99.90;;;;;;4976072;28;20026;-55
2022/09/04 04:59:33;;;;;;;1.00;0.68;;;12.00;99.90;;;;;;4983134;28;20033;-55
2022/09/04 05:02:31;;;;;;;2.63;1.20;;;12.00;99.90;;;;;;4983438;28;20061;-57
2022/09/04 05:05:12;;;;;;;2.70;0.98;;;12.10;99.90;;;;;;4982566;28;20045;-58
2022/09/04 05:08:06;;;;;;;1.00;0.90;;;12.10;99.90;;;;;;4975954;28;20439;-58
2022/09/04 05:10:58;;;;;;;1.23;1.05;;;12.10;99.90;;;;;;4976486;28;20022;-58
2022/09/04 05:13:48;;;;;;;2.33;1.10;;;12.20;99.90;;;;;;4971584;28;20018;-57
2022/09/04 05:16:22;;;;;;;2.55;0.70;;;12.20;99.90;;;;;;4983412;28;20084;-55
2022/09/04 05:19:18;;;;;;;1.45;0.90;;;12.20;99.90;;;;;;4983726;28;20486;-56
2022/09/04 05:21:55;;;;;;;2.45;0.70;;;12.30;99.90;;;;;;4983439;28;20037;-56
2022/09/04 05:24:59;;;;;;;7.32;1.45;;;12.30;99.90;;;;;;4977610;28;20049;-57
2022/09/04 05:27:49;;;;;;;2.47;1.30;;;12.40;99.90;;;;;;4959145;28;20047;-56
2022/09/04 05:30:26;;;;;;;2.13;0.90;;;12.40;99.90;;;;;;4969272;28;20498;-57
2022/09/04 05:33:11;;;;;;;1.63;1.13;;;12.40;99.90;;;;;;4982456;28;20031;-57
2022/09/04 05:36:01;;;;;;;0.80;0.80;;;12.50;99.90;;;;;;4983593;28;20018;-57
2022/09/04 05:38:35;;;;;;;1.15;0.88;;;12.50;99.90;;;;;;4982107;28;20019;-57
2022/09/04 05:41:05;;;;;;;1.10;1.00;;;12.60;99.90;;;;;;4981292;28;20072;-54
2022/09/04 05:43:49;;;;;;;2.88;1.25;;;12.60;99.90;;;;;;4983458;28;20394;-54
2022/09/04 05:46:17;;;;;;;1.98;1.10;;;12.70;99.90;;;;;;4974527;28;20431;-58
2022/09/04 05:48:57;;;;;;;0.95;0.80;;;12.70;99.90;;;;;;4977133;28;20023;-56
2022/09/04 05:51:47;;;;;;;1.05;0.80;;;12.80;99.90;;;;;;4969626;28;20121;-56
2022/09/04 05:54:24;;;;;;;0.65;0.63;;;12.80;99.90;;;;;;4982819;28;20042;-56
2022/09/04 05:57:01;;;;;;;1.10;1.00;;;12.90;99.90;;;;;;4981837;28;20034;-58
2022/09/04 05:59:29;;;;;;;1.70;1.00;;;12.90;99.90;;;;;;4982775;28;20114;-56
2022/09/04 06:02:07;;;;;;;1.45;1.00;;;12.90;99.90;;;;;;4982138;28;20490;-58
2022/09/04 06:04:38;;;;;;;1.17;0.73;;;12.90;99.90;;;;;;4982378;28;20118;-56
2022/09/04 06:07:09;;;;;;;1.83;0.75;;;13.00;99.90;;;;;;4980061;28;20029;-55
2022/09/04 06:09:56;;;;;;;1.23;1.00;;;13.10;99.90;;;;;;4983985;28;20029;-57
2022/09/04 06:12:21;;;;;;;2.15;1.13;;;13.10;99.90;;;;;;4976221;28;20019;-58
2022/09/04 06:15:06;;;;;;;1.33;0.90;;;13.10;99.90;;;;;;4986170;28;20363;-60
2022/09/04 06:17:49;;;;;;;2.08;0.70;;;13.20;99.90;;;;;;4976767;28;20118;-57
2022/09/04 06:20:26;;;;;;;2.63;1.25;;;13.30;99.90;;;;;;4970363;28;20085;-58
2022/09/04 06:23:26;;;;;;;1.05;0.88;;;13.30;99.90;;;;;;4979037;28;20031;-56
2022/09/04 06:25:54;;;;;;;1.00;0.90;;;13.40;99.90;;;;;;4980570;28;20026;-55
2022/09/04 06:28:38;;;;;;;1.02;0.90;;;13.50;99.90;;;;;;4982350;28;20026;-57
2022/09/04 06:31:18;;;;;;;3.53;1.10;;;13.50;99.90;;;;;;4981191;28;20398;-54
2022/09/04 06:34:11;;;;;;;1.92;1.33;;;13.60;99.90;;;;;;4982333;28;20483;-56
2022/09/04 06:37:03;;;;;;;1.13;0.90;;;13.60;99.90;;;;;;4980557;28;20137;-58
2022/09/04 06:39:29;;;;;;;2.47;0.80;;;13.70;99.90;;;;;;4974056;28;20022;-55
2022/09/04 06:42:23;;;;;;;1.02;0.80;;;13.80;99.90;;;;;;4980035;28;20025;-56
2022/09/04 06:45:08;;;;;;;1.38;1.02;;;13.90;99.90;;;;;;4980734;28;20031;-58
2022/09/04 06:47:47;;;;;;;2.67;1.10;;;14.00;99.90;;;;;;4970246;28;20418;-59
2022/09/04 06:50:49;;;;;;;2.17;1.20;;;14.10;99.90;;;;;;4978889;28;20387;-58
2022/09/04 06:53:55;;;;;;;1.15;0.95;;;14.30;99.90;;;;;;4972616;28;20514;-57
2022/09/04 06:56:40;;;;;;;2.08;0.80;;;14.40;99.90;;;;;;4969334;28;20030;-59
2022/09/04 06:59:08;;;;;;;1.50;1.25;;;14.50;99.90;;;;;;4980874;28;20027;-54
2022/09/04 07:01:44;;;;;;;0.95;0.80;;;14.60;99.90;;;;;;4981704;28;20030;-58
2022/09/04 07:04:18;;;;;;;1.55;1.23;;;14.70;99.90;;;;;;4981614;28;20518;-59
2022/09/04 07:06:48;;;;;;;1.92;1.00;;;14.90;99.90;;;;;;4980305;28;20453;-58
2022/09/04 07:09:20;;;;;;;2.10;1.20;;;15.10;99.90;;;;;;4979844;28;20026;-59
2022/09/04 07:12:17;;;;;;;1.33;1.23;;;15.30;99.90;;;;;;4981699;28;20041;-58
2022/09/04 07:15:21;;;;;;;1.52;1.10;;;15.60;99.90;;;;;;4980817;28;20042;-59
2022/09/04 07:18:25;;;;;;;1.70;1.02;;;15.80;99.90;;;;;;4982113;28;20026;-60
2022/09/04 07:21:15;;;;;;;2.10;1.50;;;16.10;99.90;;;;;;4979257;28;20039;-57
2022/09/04 07:23:59;;;;;;;2.80;1.40;;;16.40;99.90;;;;;;4985218;28;20157;-59
2022/09/04 07:26:57;;;;;;;1.77;1.67;;;16.60;99.90;;;;;;4978700;28;20030;-57
2022/09/04 07:29:51;;;;;;;1.80;1.20;;;16.80;99.60;;;;;;4979455;28;20473;-55
2022/09/04 07:32:27;;;;;;;1.27;1.17;;;17.00;99.30;;;;;;4975159;28;20110;-60
2022/09/04 07:35:08;;;;;;;4.05;1.40;;;17.20;98.80;;;;;;4979993;28;20019;-60
2022/09/04 07:37:57;;;;;;;2.03;1.23;;;17.30;98.10;;;;;;4987306;28;20019;-58
2022/09/04 07:40:35;;;;;;;1.10;1.02;;;17.50;98.00;;;;;;4975026;28;20015;-57
2022/09/04 07:43:41;;;;;;;1.45;1.10;;;17.60;97.90;;;;;;4984972;28;20506;-57
2022/09/04 07:46:25;;;;;;;3.40;1.48;;;17.90;97.50;;;;;;4982560;28;20030;-59
2022/09/04 07:49:04;;;;;;;3.15;1.80;;;18.10;97.90;;;;;;4979860;28;20019;-59
2022/09/04 07:51:36;;;;;;;1.75;1.33;;;18.30;97.10;;;;;;4985202;28;20096;-57
2022/09/04 07:54:37;;;;;;;2.22;1.60;;;18.30;96.50;;;;;;4982315;28;20027;-59
2022/09/04 07:57:29;;;;;;;1.88;1.42;;;18.40;96.50;;;;;;4978110;28;20372;-58
2022/09/04 08:00:07;;;;;;;1.42;1.33;;;18.60;96.70;;;;;;4984240;28;20034;-58
2022/09/04 08:03:16;;;;;;;3.30;2.13;;;18.80;96.40;;;;;;4981590;28;20019;-54
2022/09/04 08:05:48;;;;;;;2.08;1.60;;;18.90;96.00;;;;;;4979362;28;20026;-56
2022/09/04 08:08:30;;;;;;;2.92;2.30;;;19.00;95.60;;;;;;4984960;28;20015;-57
2022/09/04 08:11:11;;;;;;;1.77;1.67;;;19.10;95.60;;;;;;4982867;28;20027;-59
2022/09/04 08:13:51;;;;;;;2.63;2.17;;;19.30;95.70;;;;;;4984837;28;20023;-57
2022/09/04 08:16:32;;;;;;;6.28;2.08;;;19.50;95.00;;;;;;4984605;28;20422;-57
2022/09/04 08:19:28;;;;;;;2.17;1.73;;;19.60;94.70;;;;;;4984561;28;20506;-53
2022/09/04 08:21:55;;;;;;;5.47;2.40;;;19.70;94.80;;;;;;4984014;28;20026;-56
2022/09/04 08:24:54;;;;;;;3.45;2.30;;;19.70;94.50;;;;;;4981087;28;20373;-54
2022/09/04 08:27:38;;;;;;;2.65;1.60;;;19.80;94.60;;;;;;4975444;28;20086;-55
2022/09/04 08:30:09;;;;;;;1.92;1.73;;;19.90;94.40;;;;;;4983371;28;20027;-56
2022/09/04 08:32:55;;;;;;;5.28;2.00;;;20.10;94.70;;;;;;4985190;28;20018;-56
2022/09/04 08:35:34;;;;;;;3.00;2.05;;;20.20;93.80;;;;;;4972611;28;20414;-55
2022/09/04 08:38:32;;;;;;;2.13;1.77;;;20.30;93.80;;;;;;4984293;28;20026;-56
2022/09/04 08:41:19;;;;;;;4.03;2.28;;;20.40;94.00;;;;;;4981581;28;20010;-56
2022/09/04 08:44:06;;;;;;;3.67;2.10;;;20.40;93.30;;;;;;4986921;28;20026;-53
2022/09/04 08:47:00;;;;;;;3.28;1.80;;;20.40;93.60;;;;;;4978757;28;20050;-58
2022/09/04 08:49:54;;;;;;;2.58;2.38;;;20.40;93.30;;;;;;4973121;28;20046;-55
2022/09/04 08:52:57;;;;;;;3.75;2.08;;;20.50;93.10;;;;;;4975678;28;20029;-57
2022/09/04 08:55:25;;;;;;;5.63;2.00;;;20.70;92.70;;;;;;4977740;28;20095;-57
2022/09/04 08:58:10;;;;;;;4.00;1.88;;;20.70;93.10;;;;;;4987667;28;20022;-57
2022/09/04 09:00:55;;;;;;;2.95;2.08;;;20.80;92.90;;;;;;4980761;28;20019;-54
2022/09/04 09:03:45;;;;;;;2.00;1.80;;;20.80;93.00;;;;;;4973854;28;20051;-53
2022/09/04 09:06:53;;;;;;;2.00;1.85;;;20.90;92.50;;;;;;4982990;28;20022;-53
2022/09/04 09:09:30;;;;;;;6.22;2.40;;;20.90;92.70;;;;;;4982505;28;20031;-58
2022/09/04 09:12:26;;;;;;;4.35;1.98;;;20.90;92.00;;;;;;4982574;28;20078;-57
2022/09/04 09:15:10;;;;;;;3.40;1.80;;;20.90;92.30;;;;;;4984331;28;20014;-53
2022/09/04 09:18:02;;;;;;;1.90;1.80;;;20.80;92.50;;;;;;4980261;28;20027;-58
2022/09/04 09:20:59;;;;;;;1.98;1.85;;;20.80;93.00;;;;;;4974436;28;20175;-55
2022/09/04 09:24:03;;;;;;;3.05;1.90;;;20.90;92.70;;;;;;4972501;28;20022;-56
2022/09/04 09:26:32;;;;;;;2.20;2.00;;;21.00;92.30;;;;;;4977575;28;20069;-54
2022/09/04 09:29:53;;;;;;;3.53;2.50;;;21.00;92.30;;;;;;4982277;28;20023;-54
2022/09/04 09:32:44;;;;;;;2.38;2.10;;;21.00;92.00;;;;;;4921463;28;20869;-57
2022/09/04 09:35:56;;;;;;;2.70;2.35;;;21.00;92.50;;;;;;4982644;28;20399;-54
2022/09/04 09:38:28;;;;;;;1.98;1.80;;;21.00;91.90;;;;;;4971553;28;20117;-57
2022/09/04 09:41:31;;;;;;;2.85;2.00;;;21.00;91.90;;;;;;4982612;28;20022;-56
2022/09/04 09:44:15;;;;;;;2.55;1.98;;;21.00;91.90;;;;;;4983831;28;20033;-57
2022/09/04 09:47:13;;;;;;;2.58;2.13;;;21.00;92.00;;;;;;4977926;28;20085;-58
2022/09/04 09:50:10;;;;;;;2.53;2.33;;;21.00;92.30;;;;;;4976627;28;20093;-59
2022/09/04 09:53:05;;;;;;;2.70;2.08;;;21.10;92.00;;;;;;4957837;28;20062;-54
2022/09/04 09:56:07;;;;;;;2.40;2.20;;;21.20;92.00;;;;;;4977804;28;20031;-56
2022/09/04 09:58:57;;;;;;;4.13;2.03;;;21.20;92.30;;;;;;4974813;28;20094;-56
2022/09/04 10:01:41;;;;;;;3.15;2.30;;;21.20;92.20;;;;;;4975805;28;20089;-57
2022/09/04 10:04:20;;;;;;;2.53;2.33;;;21.30;91.90;;;;;;4982445;28;20387;-58
2022/09/04 10:07:18;;;;;;;3.65;1.90;;;21.30;91.60;;;;;;4975005;28;20400;-53
2022/09/04 10:10:30;;;;;;;2.63;2.05;;;21.40;91.90;;;;;;4981504;28;20049;-57
2022/09/04 10:13:23;;;;;;;2.22;1.85;;;21.50;91.70;;;;;;4977979;28;20479;-57
2022/09/04 10:15:55;;;;;;;2.28;2.03;;;21.50;91.30;;;;;;4980508;28;20045;-56
2022/09/04 10:18:44;;;;;;;2.33;2.03;;;21.50;91.40;;;;;;4982640;28;20019;-57
2022/09/04 10:21:28;;;;;;;3.22;1.95;;;21.60;91.20;;;;;;4981993;28;20026;-56
2022/09/04 10:24:28;;;;;;;3.33;2.25;;;21.60;90.90;;;;;;4979881;28;20041;-58
2022/09/04 10:27:19;;;;;;;3.55;2.28;;;21.70;91.00;;;;;;4979417;28;20511;-57
2022/09/04 10:30:14;;;;;;;2.38;1.70;;;21.70;91.00;;;;;;4975074;28;20023;-56
2022/09/04 10:33:09;;;;;;;2.92;1.92;;;21.80;90.60;;;;;;4961560;28;20055;-54
2022/09/04 10:35:57;;;;;;;2.78;1.98;;;21.90;90.30;;;;;;4974336;28;20383;-54
2022/09/04 10:40:34;;;;;;;2.55;2.03;;;21.90;89.20;;;;;;4982016;28;20018;-54
2022/09/04 10:41:38;;;;;;;2.75;2.33;;;21.90;89.40;;;;;;4976504;28;20162;-56
2022/09/04 10:44:30;;;;;;;4.90;1.83;;;21.90;89.20;;;;;;4985286;28;20386;-56
2022/09/04 10:47:10;;;;;;;3.70;2.15;;;22.00;88.70;;;;;;4975397;28;20027;-51
2022/09/04 10:49:58;;;;;;;2.55;1.83;;;22.00;89.30;;;;;;4982249;28;20080;-57
2022/09/04 10:52:47;;;;;;;2.30;2.15;;;22.00;88.50;;;;;;4974803;28;20340;-57
2022/09/04 10:55:28;;;;;;;2.50;1.90;;;22.10;88.70;;;;;;4959501;28;20034;-56
2022/09/04 10:58:38;;;;;;;2.05;1.92;;;22.20;89.50;;;;;;4985802;28;20022;-57
2022/09/04 11:01:26;;;;;;;2.97;2.05;;;22.20;88.60;;;;;;4979169;28;20069;-54
2022/09/04 11:04:01;;;;;;;2.45;2.25;;;22.30;88.20;;;;;;4981711;28;20014;-54
2022/09/04 11:06:48;;;;;;;3.55;1.83;;;22.30;87.60;;;;;;4982027;28;20402;-57
2022/09/04 11:09:36;;;;;;;2.38;2.13;;;22.40;88.40;;;;;;4980305;28;20026;-55
2022/09/04 11:12:10;;;;;;;2.10;1.90;;;22.40;88.60;;;;;;4979610;28;20019;-55
2022/09/04 11:14:52;;;;;;;2.35;2.15;;;22.40;87.30;;;;;;4983964;28;20093;-56
2022/09/04 11:17:32;;;;;;;2.50;2.30;;;22.40;87.30;;;;;;4976020;28;20035;-59
2022/09/04 11:20:19;;;;;;;3.58;1.98;;;22.50;88.00;;;;;;4986846;28;20080;-57
2022/09/04 11:23:09;;;;;;;2.13;1.92;;;22.40;88.10;;;;;;4978245;28;20019;-54
2022/09/04 11:26:22;;;;;;;3.88;2.00;;;22.50;85.30;;;;;;4972041;28;20038;-56
2022/09/04 11:28:59;;;;;;;2.15;1.95;;;22.50;86.10;;;;;;4949932;28;20034;-58
2022/09/04 11:31:54;;;;;;;2.83;2.35;;;22.60;86.20;;;;;;4982134;28;20015;-57
2022/09/04 11:34:35;;;;;;;1.88;1.70;;;22.60;85.80;;;;;;4970342;28;20105;-57
2022/09/04 11:37:22;;;;;;;2.38;1.90;;;22.70;86.50;;;;;;4985977;28;20372;-56
2022/09/04 11:40:06;;;;;;;2.78;1.92;;;22.70;85.00;;;;;;4978205;28;20023;-57
2022/09/04 11:42:41;;;;;;;1.90;1.70;;;22.70;84.80;;;;;;4970942;28;20486;-55
2022/09/04 11:45:46;;;;;;;2.65;2.05;;;22.70;85.30;;;;;;4979724;28;20054;-56
2022/09/04 11:48:39;;;;;;;2.38;1.85;;;22.70;84.60;;;;;;4976118;28;20031;-58
2022/09/04 11:51:05;;;;;;;3.28;1.85;;;22.70;84.30;;;;;;4964847;28;20043;-57
2022/09/04 11:53:47;;;;;;;1.58;1.48;;;22.70;83.00;;;;;;4981997;28;20037;-57
2022/09/04 11:56:54;;;;;;;3.65;2.00;;;22.70;84.40;;;;;;4981812;28;20022;-56
2022/09/04 11:59:30;;;;;;;;;;;22.80;84.20;;;;;;4963609;28;20119;-53
2022/09/04 12:02:14;;;;;;;2.45;2.10;;;22.80;83.90;;;;;;4981707;28;19913;-58
2022/09/04 12:05:03;;;;;;;4.60;2.20;;;22.80;83.30;;;;;;4985147;28;20129;-57
2022/09/04 12:07:52;;;;;;;2.28;2.08;;;22.90;82.50;;;;;;4980413;28;20487;-55
2022/09/04 12:10:29;;;;;;;2.40;2.20;;;22.90;82.20;;;;;;4975759;28;20027;-57
2022/09/04 12:13:09;;;;;;;2.63;1.98;;;22.90;83.30;;;;;;4979773;28;20450;-56
2022/09/04 12:16:08;;;;;;;2.15;2.00;;;23.00;82.80;;;;;;4985441;28;20031;-55
2022/09/04 12:19:01;;;;;;;2.55;1.65;;;23.10;81.70;;;;;;4976493;28;20026;-58
2022/09/04 12:22:01;;;;;;;2.58;2.00;;;23.20;82.40;;;;;;4984456;28;20046;-55
2022/09/04 12:24:59;;;;;;;1.80;1.70;;;23.30;81.90;;;;;;4979787;28;20027;-53
2022/09/04 12:27:30;;;;;;;1.95;1.75;;;23.30;81.00;;;;;;4976384;28;20088;-56
2022/09/04 12:30:25;;;;;;;3.60;1.98;;;23.30;82.20;;;;;;4982535;28;20023;-58
2022/09/04 12:33:24;;;;;;;2.17;1.63;;;23.30;80.60;;;;;;4967666;28;20039;-58
2022/09/04 12:36:03;;;;;;;1.95;1.85;;;23.30;79.70;;;;;;4984237;28;20065;-58
2022/09/04 12:38:48;;;;;;;2.15;1.80;;;23.40;81.00;;;;;;4984243;28;20020;-56
2022/09/04 12:41:26;;;;;;;1.98;1.75;;;23.40;81.40;;;;;;4980576;28;20446;-58
2022/09/04 12:44:28;;;;;;;5.20;1.92;;;23.40;80.30;;;;;;4987417;28;20069;-58
2022/09/04 12:47:14;;;;;;;3.40;1.90;;;23.50;80.80;;;;;;4976250;28;20027;-56
2022/09/04 12:50:14;;;;;;;2.17;2.05;;;23.60;80.50;;;;;;4984615;28;20033;-52
2022/09/04 12:52:46;;;;;;;2.95;1.83;;;23.70;79.80;;;;;;4981190;28;20022;-56
2022/09/04 12:55:41;;;;;;;3.55;2.03;;;23.80;79.60;;;;;;4980825;28;20019;-59
2022/09/04 12:58:24;;;;;;;2.50;2.08;;;23.80;80.30;;;;;;4986678;28;20029;-57
2022/09/04 13:01:14;;;;;;;2.90;1.98;;;23.80;79.50;;;;;;4977827;28;20030;-57
2022/09/04 13:04:04;;;;;;;2.60;2.40;;;23.90;79.90;;;;;;4984826;28;20537;-58
2022/09/04 13:06:48;;;;;;;4.80;2.45;;;24.00;79.60;;;;;;4975295;28;20034;-58
2022/09/04 13:09:20;;;;;;;2.30;2.03;;;24.10;78.70;;;;;;4981517;28;20022;-56
2022/09/04 13:11:56;;;;;;;2.40;2.05;;;24.10;78.80;;;;;;4983705;28;20019;-58
2022/09/04 13:14:40;;;;;;;1.80;1.70;;;24.10;79.00;;;;;;4980733;28;20021;-55
2022/09/04 13:17:36;;;;;;;2.08;1.88;;;24.10;78.90;;;;;;4981257;28;20057;-57
2022/09/04 13:20:11;;;;;;;1.75;1.65;;;24.10;77.70;;;;;;4970506;28;20035;-57
2022/09/04 13:22:44;;;;;;;;;;;24.10;77.90;;;;;;4980127;28;20027;-58
2022/09/04 13:25:54;;;;;;;3.03;2.03;;;24.20;78.50;;;;;;4983196;28;20343;-57
2022/09/04 13:28:34;;;;;;;2.10;1.90;;;24.10;78.60;;;;;;4957645;28;20161;-58
2022/09/04 13:31:18;;;;;;;2.35;1.80;;;24.20;78.50;;;;;;4982476;28;20118;-58
2022/09/04 13:34:12;;;;;;;2.58;1.90;;;24.20;77.90;;;;;;4983458;28;20393;-55
2022/09/04 13:36:49;;;;;;;3.20;2.00;;;24.30;78.80;;;;;;4978063;28;20031;-56
2022/09/04 13:39:39;;;;;;;2.05;1.52;;;24.30;78.20;;;;;;4970822;28;20094;-56
2022/09/04 13:42:28;;;;;;;2.60;1.85;;;24.40;77.90;;;;;;4981152;28;20100;-58
2022/09/04 13:45:22;;;;;;;3.47;2.10;;;24.50;78.50;;;;;;4982644;28;20045;-59
2022/09/04 13:47:59;;;;;;;2.58;1.90;;;24.50;78.40;;;;;;4979095;28;20394;-60
2022/09/04 13:50:56;;;;;;;3.85;1.75;;;24.50;77.90;;;;;;4978094;28;20019;-58
2022/09/04 13:53:29;;;;;;;2.50;2.10;;;24.70;78.10;;;;;;4958277;28;20022;-57
2022/09/04 13:56:01;;;;;;;3.05;1.63;;;24.80;76.60;;;;;;4974090;28;20027;-57
2022/09/04 13:58:32;;;;;;;2.08;1.80;;;24.80;75.90;;;;;;4975303;28;20105;-54
2022/09/04 14:01:00;;;;;;;1.90;1.80;;;24.80;76.00;;;;;;4982878;28;20027;-56
2022/09/04 14:03:43;;;;;;;2.05;1.90;;;24.80;75.80;;;;;;4982607;28;20026;-55
2022/09/04 14:06:13;;;;;;;2.65;2.22;;;24.90;77.00;;;;;;4980487;28;20030;-58
2022/09/04 14:08:41;;;;;;;3.63;1.90;;;24.90;76.20;;;;;;4983038;28;20078;-56
2022/09/04 14:11:29;;;;;;;2.97;2.08;;;24.90;76.40;;;;;;4976225;28;20026;-59
2022/09/04 14:13:57;;;;;;;2.20;2.00;;;24.90;75.20;;;;;;4982098;28;20022;-59
2022/09/04 14:16:23;;;;;;;2.75;1.85;;;24.90;75.70;;;;;;4979222;28;20130;-57
2022/09/04 14:18:55;;;;;;;2.42;1.80;;;24.90;76.20;;;;;;4985319;28;20505;-56
2022/09/04 14:21:27;;;;;;;2.63;2.00;;;24.90;76.60;;;;;;4974770;28;20026;-58